sensor_id;sensor_type;location;lat;lon;timestamp;temperature;humidity
76211;DHT22;65003;49.518;11.280;2023-04-16T00:00:23;9.40;95.20
76211;DHT22;65003;49.518;11.280;2023-04-16T00:02:49;9.50;95.30
76211;DHT22;65003;49.518;11.280;2023-04-16T00:05:16;9.40;95.20
76211;DHT22;65003;49.518;11.280;2023-04-16T00:07:43;9.40;95.70
76211;DHT22;65003;49.518;11.280;2023-04-16T00:10:09;9.50;95.20
76211;DHT22;65003;49.518;11.280;2023-04-16T00:12:36;9.60;94.90
76211;DHT22;65003;49.518;11.280;2023-04-16T00:15:03;9.80;94.50
76211;DHT22;65003;49.518;11.280;2023-04-16T00:17:29;9.90;94.20
76211;DHT22;65003;49.518;11.280;2023-04-16T00:19:56;10.10;93.80
76211;DHT22;65003;49.518;11.280;2023-04-16T00:22:22;10.20;93.60
76211;DHT22;65003;49.518;11.280;2023-04-16T00:24:49;10.00;93.70
76211;DHT22;65003;49.518;11.280;2023-04-16T00:27:17;10.10;93.80
76211;DHT22;65003;49.518;11.280;2023-04-16T00:29:42;10.10;93.60
76211;DHT22;65003;49.518;11.280;2023-04-16T00:32:09;10.10;93.60
76211;DHT22;65003;49.518;11.280;2023-04-16T00:34:35;9.90;94.00
76211;DHT22;65003;49.518;11.280;2023-04-16T00:37:02;9.90;94.10
76211;DHT22;65003;49.518;11.280;2023-04-16T00:39:29;10.10;93.80
76211;DHT22;65003;49.518;11.280;2023-04-16T00:41:55;10.00;93.50
76211;DHT22;65003;49.518;11.280;2023-04-16T00:44:22;10.20;93.50
76211;DHT22;65003;49.518;11.280;2023-04-16T00:46:48;10.30;93.10
76211;DHT22;65003;49.518;11.280;2023-04-16T00:49:15;10.40;92.90
76211;DHT22;65003;49.518;11.280;2023-04-16T00:51:41;10.40;92.90
76211;DHT22;65003;49.518;11.280;2023-04-16T00:54:08;10.40;92.80
76211;DHT22;65003;49.518;11.280;2023-04-16T00:56:35;10.40;92.80
76211;DHT22;65003;49.518;11.280;2023-04-16T00:59:01;10.40;93.00
76211;DHT22;65003;49.518;11.280;2023-04-16T01:01:28;10.40;92.90
76211;DHT22;65003;49.518;11.280;2023-04-16T01:03:55;10.40;92.90
76211;DHT22;65003;49.518;11.280;2023-04-16T01:06:21;10.40;92.80
76211;DHT22;65003;49.518;11.280;2023-04-16T01:08:48;10.50;92.70
76211;DHT22;65003;49.518;11.280;2023-04-16T01:11:14;10.60;92.50
76211;DHT22;65003;49.518;11.280;2023-04-16T01:13:41;10.60;92.50
76211;DHT22;65003;49.518;11.280;2023-04-16T01:16:09;10.50;92.50
76211;DHT22;65003;49.518;11.280;2023-04-16T01:18:35;10.50;92.40
76211;DHT22;65003;49.518;11.280;2023-04-16T01:21:01;10.60;92.40
76211;DHT22;65003;49.518;11.280;2023-04-16T01:23:27;10.50;92.40
76211;DHT22;65003;49.518;11.280;2023-04-16T01:25:54;10.50;92.60
76211;DHT22;65003;49.518;11.280;2023-04-16T01:28:21;10.40;92.70
76211;DHT22;65003;49.518;11.280;2023-04-16T01:30:48;10.30;93.00
76211;DHT22;65003;49.518;11.280;2023-04-16T01:33:14;10.40;92.80
76211;DHT22;65003;49.518;11.280;2023-04-16T01:35:41;10.50;92.50
76211;DHT22;65003;49.518;11.280;2023-04-16T01:38:08;10.60;92.30
76211;DHT22;65003;49.518;11.280;2023-04-16T01:40:35;10.70;92.20
76211;DHT22;65003;49.518;11.280;2023-04-16T01:43:00;10.70;92.20
76211;DHT22;65003;49.518;11.280;2023-04-16T01:45:27;10.70;92.10
76211;DHT22;65003;49.518;11.280;2023-04-16T01:47:54;10.50;92.40
76211;DHT22;65003;49.518;11.280;2023-04-16T01:50:20;10.40;92.80
76211;DHT22;65003;49.518;11.280;2023-04-16T01:52:47;10.30;93.00
76211;DHT22;65003;49.518;11.280;2023-04-16T01:55:13;10.30;93.10
76211;DHT22;65003;49.518;11.280;2023-04-16T01:57:40;10.40;92.90
76211;DHT22;65003;49.518;11.280;2023-04-16T02:00:07;10.50;92.70
76211;DHT22;65003;49.518;11.280;2023-04-16T02:02:34;10.50;92.70
76211;DHT22;65003;49.518;11.280;2023-04-16T02:05:00;10.60;92.40
76211;DHT22;65003;49.518;11.280;2023-04-16T02:07:27;10.70;92.20
76211;DHT22;65003;49.518;11.280;2023-04-16T02:09:54;10.60;92.30
76211;DHT22;65003;49.518;11.280;2023-04-16T02:12:20;10.60;92.40
76211;DHT22;65003;49.518;11.280;2023-04-16T02:14:47;10.50;92.60
76211;DHT22;65003;49.518;11.280;2023-04-16T02:17:14;10.40;92.80
76211;DHT22;65003;49.518;11.280;2023-04-16T02:19:40;10.40;92.90
76211;DHT22;65003;49.518;11.280;2023-04-16T02:22:07;10.40;92.90
76211;DHT22;65003;49.518;11.280;2023-04-16T02:24:33;10.50;92.70
76211;DHT22;65003;49.518;11.280;2023-04-16T02:27:00;10.50;92.70
76211;DHT22;65003;49.518;11.280;2023-04-16T02:29:27;10.40;92.80
76211;DHT22;65003;49.518;11.280;2023-04-16T02:31:53;10.50;92.70
76211;DHT22;65003;49.518;11.280;2023-04-16T02:34:20;10.40;92.70
76211;DHT22;65003;49.518;11.280;2023-04-16T02:36:47;10.50;92.70
76211;DHT22;65003;49.518;11.280;2023-04-16T02:39:13;10.50;92.70
76211;DHT22;65003;49.518;11.280;2023-04-16T02:41:40;10.60;92.50
76211;DHT22;65003;49.518;11.280;2023-04-16T02:44:06;10.60;92.30
76211;DHT22;65003;49.518;11.280;2023-04-16T02:46:33;10.50;92.40
76211;DHT22;65003;49.518;11.280;2023-04-16T02:48:59;10.40;92.70
76211;DHT22;65003;49.518;11.280;2023-04-16T02:51:26;10.30;92.90
76211;DHT22;65003;49.518;11.280;2023-04-16T02:53:53;10.30;93.10
76211;DHT22;65003;49.518;11.280;2023-04-16T02:56:19;10.20;93.20
76211;DHT22;65003;49.518;11.280;2023-04-16T02:58:46;10.30;93.10
76211;DHT22;65003;49.518;11.280;2023-04-16T03:01:12;10.30;93.00
76211;DHT22;65003;49.518;11.280;2023-04-16T03:03:39;10.50;92.80
76211;DHT22;65003;49.518;11.280;2023-04-16T03:06:05;10.60;92.50
76211;DHT22;65003;49.518;11.280;2023-04-16T03:08:32;10.70;92.40
76211;DHT22;65003;49.518;11.280;2023-04-16T03:10:59;10.70;92.10
76211;DHT22;65003;49.518;11.280;2023-04-16T03:13:25;10.70;92.10
76211;DHT22;65003;49.518;11.280;2023-04-16T03:15:52;10.70;92.20
76211;DHT22;65003;49.518;11.280;2023-04-16T03:18:19;10.70;92.10
76211;DHT22;65003;49.518;11.280;2023-04-16T03:20:45;10.70;92.00
76211;DHT22;65003;49.518;11.280;2023-04-16T03:23:12;10.70;92.10
76211;DHT22;65003;49.518;11.280;2023-04-16T03:25:38;10.50;92.40
76211;DHT22;65003;49.518;11.280;2023-04-16T03:28:05;10.60;92.40
76211;DHT22;65003;49.518;11.280;2023-04-16T03:30:32;10.50;92.50
76211;DHT22;65003;49.518;11.280;2023-04-16T03:32:58;10.50;92.50
76211;DHT22;65003;49.518;11.280;2023-04-16T03:35:25;10.40;92.70
76211;DHT22;65003;49.518;11.280;2023-04-16T03:37:51;10.40;92.70
76211;DHT22;65003;49.518;11.280;2023-04-16T03:40:18;10.50;92.60
76211;DHT22;65003;49.518;11.280;2023-04-16T03:42:45;10.40;92.50
76211;DHT22;65003;49.518;11.280;2023-04-16T03:45:11;10.40;92.70
76211;DHT22;65003;49.518;11.280;2023-04-16T03:47:38;10.50;92.60
76211;DHT22;65003;49.518;11.280;2023-04-16T03:50:05;10.40;92.50
76211;DHT22;65003;49.518;11.280;2023-04-16T03:52:31;10.50;92.50
76211;DHT22;65003;49.518;11.280;2023-04-16T03:54:58;10.30;92.70
76211;DHT22;65003;49.518;11.280;2023-04-16T03:57:24;10.30;92.90
76211;DHT22;65003;49.518;11.280;2023-04-16T03:59:51;10.40;92.80
76211;DHT22;65003;49.518;11.280;2023-04-16T04:02:18;10.40;92.80
76211;DHT22;65003;49.518;11.280;2023-04-16T04:04:44;10.30;92.90
76211;DHT22;65003;49.518;11.280;2023-04-16T04:07:11;10.40;92.90
76211;DHT22;65003;49.518;11.280;2023-04-16T04:09:37;10.50;92.90
76211;DHT22;65003;49.518;11.280;2023-04-16T04:12:04;10.40;92.50
76211;DHT22;65003;49.518;11.280;2023-04-16T04:14:30;10.40;92.40
76211;DHT22;65003;49.518;11.280;2023-04-16T04:16:57;10.40;92.50
76211;DHT22;65003;49.518;11.280;2023-04-16T04:19:24;10.40;92.40
76211;DHT22;65003;49.518;11.280;2023-04-16T04:21:50;10.50;92.30
76211;DHT22;65003;49.518;11.280;2023-04-16T04:24:17;10.40;92.60
76211;DHT22;65003;49.518;11.280;2023-04-16T04:26:44;10.40;92.40
76211;DHT22;65003;49.518;11.280;2023-04-16T04:29:10;10.60;92.30
76211;DHT22;65003;49.518;11.280;2023-04-16T04:31:37;10.60;92.20
76211;DHT22;65003;49.518;11.280;2023-04-16T04:34:03;10.70;91.90
76211;DHT22;65003;49.518;11.280;2023-04-16T04:36:30;10.70;91.80
76211;DHT22;65003;49.518;11.280;2023-04-16T04:38:57;10.60;92.40
76211;DHT22;65003;49.518;11.280;2023-04-16T04:41:23;10.60;91.90
76211;DHT22;65003;49.518;11.280;2023-04-16T04:43:50;10.70;91.80
76211;DHT22;65003;49.518;11.280;2023-04-16T04:46:17;10.70;91.70
76211;DHT22;65003;49.518;11.280;2023-04-16T04:48:43;10.80;91.70
76211;DHT22;65003;49.518;11.280;2023-04-16T04:51:10;10.70;91.40
76211;DHT22;65003;49.518;11.280;2023-04-16T04:53:36;10.80;91.40
76211;DHT22;65003;49.518;11.280;2023-04-16T04:56:03;10.70;91.30
76211;DHT22;65003;49.518;11.280;2023-04-16T04:58:30;10.70;91.50
76211;DHT22;65003;49.518;11.280;2023-04-16T05:00:56;10.70;91.80
76211;DHT22;65003;49.518;11.280;2023-04-16T05:03:23;10.60;91.90
76211;DHT22;65003;49.518;11.280;2023-04-16T05:05:49;10.40;92.30
76211;DHT22;65003;49.518;11.280;2023-04-16T05:08:16;10.20;92.80
76211;DHT22;65003;49.518;11.280;2023-04-16T05:10:43;9.90;93.80
76211;DHT22;65003;49.518;11.280;2023-04-16T05:13:09;9.60;94.40
76211;DHT22;65003;49.518;11.280;2023-04-16T05:15:36;9.60;94.60
76211;DHT22;65003;49.518;11.280;2023-04-16T05:18:03;9.70;94.60
76211;DHT22;65003;49.518;11.280;2023-04-16T05:20:29;9.80;94.30
76211;DHT22;65003;49.518;11.280;2023-04-16T05:22:56;9.90;93.90
76211;DHT22;65003;49.518;11.280;2023-04-16T05:25:23;10.20;93.60
76211;DHT22;65003;49.518;11.280;2023-04-16T05:27:49;10.40;93.10
76211;DHT22;65003;49.518;11.280;2023-04-16T05:30:16;10.50;92.70
76211;DHT22;65003;49.518;11.280;2023-04-16T05:32:42;10.60;92.30
76211;DHT22;65003;49.518;11.280;2023-04-16T05:35:09;10.60;92.10
76211;DHT22;65003;49.518;11.280;2023-04-16T05:37:36;10.60;92.10
76211;DHT22;65003;49.518;11.280;2023-04-16T05:40:02;10.60;92.30
76211;DHT22;65003;49.518;11.280;2023-04-16T05:42:29;10.70;92.20
76211;DHT22;65003;49.518;11.280;2023-04-16T05:44:56;10.70;91.90
76211;DHT22;65003;49.518;11.280;2023-04-16T05:47:22;10.80;91.80
76211;DHT22;65003;49.518;11.280;2023-04-16T05:49:49;10.80;91.80
76211;DHT22;65003;49.518;11.280;2023-04-16T05:52:15;10.90;91.50
76211;DHT22;65003;49.518;11.280;2023-04-16T05:54:42;10.90;91.40
76211;DHT22;65003;49.518;11.280;2023-04-16T05:57:08;10.50;91.60
76211;DHT22;65003;49.518;11.280;2023-04-16T05:59:35;10.10;92.90
76211;DHT22;65003;49.518;11.280;2023-04-16T06:02:02;10.10;93.60
76211;DHT22;65003;49.518;11.280;2023-04-16T06:04:28;10.20;93.70
76211;DHT22;65003;49.518;11.280;2023-04-16T06:06:55;10.20;93.40
76211;DHT22;65003;49.518;11.280;2023-04-16T06:09:22;10.00;93.30
76211;DHT22;65003;49.518;11.280;2023-04-16T06:11:48;9.80;93.90
76211;DHT22;65003;49.518;11.280;2023-04-16T06:14:15;9.80;94.30
76211;DHT22;65003;49.518;11.280;2023-04-16T06:16:41;9.80;94.00
76211;DHT22;65003;49.518;11.280;2023-04-16T06:19:08;9.70;94.40
76211;DHT22;65003;49.518;11.280;2023-04-16T06:21:35;9.70;94.70
76211;DHT22;65003;49.518;11.280;2023-04-16T06:24:02;9.70;94.40
76211;DHT22;65003;49.518;11.280;2023-04-16T06:26:28;9.70;94.70
76211;DHT22;65003;49.518;11.280;2023-04-16T06:28:55;9.60;95.00
76211;DHT22;65003;49.518;11.280;2023-04-16T06:31:21;9.70;95.10
76211;DHT22;65003;49.518;11.280;2023-04-16T06:33:48;9.90;95.10
76211;DHT22;65003;49.518;11.280;2023-04-16T06:36:15;10.10;94.70
76211;DHT22;65003;49.518;11.280;2023-04-16T06:38:41;10.20;94.60
76211;DHT22;65003;49.518;11.280;2023-04-16T06:41:08;10.40;94.10
76211;DHT22;65003;49.518;11.280;2023-04-16T06:43:34;10.40;93.30
76211;DHT22;65003;49.518;11.280;2023-04-16T06:46:01;10.50;93.20
76211;DHT22;65003;49.518;11.280;2023-04-16T06:48:28;10.60;93.20
76211;DHT22;65003;49.518;11.280;2023-04-16T06:50:54;10.60;93.20
76211;DHT22;65003;49.518;11.280;2023-04-16T06:53:21;10.50;92.80
76211;DHT22;65003;49.518;11.280;2023-04-16T06:55:47;10.50;92.90
76211;DHT22;65003;49.518;11.280;2023-04-16T06:58:14;10.70;92.40
76211;DHT22;65003;49.518;11.280;2023-04-16T07:00:41;10.80;92.40
76211;DHT22;65003;49.518;11.280;2023-04-16T07:03:07;11.10;91.80
76211;DHT22;65003;49.518;11.280;2023-04-16T07:05:34;11.30;91.20
76211;DHT22;65003;49.518;11.280;2023-04-16T07:08:00;11.60;90.70
76211;DHT22;65003;49.518;11.280;2023-04-16T07:10:27;11.70;90.70
76211;DHT22;65003;49.518;11.280;2023-04-16T07:12:54;11.80;90.30
76211;DHT22;65003;49.518;11.280;2023-04-16T07:15:20;12.00;90.30
76211;DHT22;65003;49.518;11.280;2023-04-16T07:17:47;12.30;90.10
76211;DHT22;65003;49.518;11.280;2023-04-16T07:20:13;12.60;89.00
76211;DHT22;65003;49.518;11.280;2023-04-16T07:22:40;12.70;88.00
76211;DHT22;65003;49.518;11.280;2023-04-16T07:25:07;13.40;88.30
76211;DHT22;65003;49.518;11.280;2023-04-16T07:27:34;12.90;86.00
76211;DHT22;65003;49.518;11.280;2023-04-16T07:30:00;12.90;85.40
76211;DHT22;65003;49.518;11.280;2023-04-16T07:32:27;13.00;83.20
76211;DHT22;65003;49.518;11.280;2023-04-16T07:34:54;13.10;83.50
76211;DHT22;65003;49.518;11.280;2023-04-16T07:37:20;13.20;83.60
76211;DHT22;65003;49.518;11.280;2023-04-16T07:39:47;13.30;84.00
76211;DHT22;65003;49.518;11.280;2023-04-16T07:42:14;13.60;82.80
76211;DHT22;65003;49.518;11.280;2023-04-16T07:44:40;13.80;81.70
76211;DHT22;65003;49.518;11.280;2023-04-16T07:47:07;13.80;81.60
76211;DHT22;65003;49.518;11.280;2023-04-16T07:49:33;13.80;82.00
76211;DHT22;65003;49.518;11.280;2023-04-16T07:52:00;13.80;80.50
76211;DHT22;65003;49.518;11.280;2023-04-16T07:54:27;13.80;79.70
76211;DHT22;65003;49.518;11.280;2023-04-16T07:56:53;13.60;80.80
76211;DHT22;65003;49.518;11.280;2023-04-16T07:59:20;13.50;82.10
76211;DHT22;65003;49.518;11.280;2023-04-16T08:01:46;13.40;82.30
76211;DHT22;65003;49.518;11.280;2023-04-16T08:04:13;13.20;83.00
76211;DHT22;65003;49.518;11.280;2023-04-16T08:06:40;13.00;82.30
76211;DHT22;65003;49.518;11.280;2023-04-16T08:09:06;13.10;82.30
76211;DHT22;65003;49.518;11.280;2023-04-16T08:11:33;13.40;82.60
76211;DHT22;65003;49.518;11.280;2023-04-16T08:13:59;13.40;83.00
76211;DHT22;65003;49.518;11.280;2023-04-16T08:16:26;13.40;82.50
76211;DHT22;65003;49.518;11.280;2023-04-16T08:18:52;13.00;83.00
76211;DHT22;65003;49.518;11.280;2023-04-16T08:21:19;12.60;84.40
76211;DHT22;65003;49.518;11.280;2023-04-16T08:23:46;12.60;84.50
76211;DHT22;65003;49.518;11.280;2023-04-16T08:26:12;12.40;85.00
76211;DHT22;65003;49.518;11.280;2023-04-16T08:28:39;12.40;87.70
76211;DHT22;65003;49.518;11.280;2023-04-16T08:31:05;12.50;86.10
76211;DHT22;65003;49.518;11.280;2023-04-16T08:33:32;12.70;85.20
76211;DHT22;65003;49.518;11.280;2023-04-16T08:35:59;12.90;84.00
76211;DHT22;65003;49.518;11.280;2023-04-16T08:38:25;13.00;84.00
76211;DHT22;65003;49.518;11.280;2023-04-16T08:40:52;12.80;83.80
76211;DHT22;65003;49.518;11.280;2023-04-16T08:43:19;12.70;85.40
76211;DHT22;65003;49.518;11.280;2023-04-16T08:45:46;12.60;86.50
76211;DHT22;65003;49.518;11.280;2023-04-16T08:48:12;12.60;87.40
76211;DHT22;65003;49.518;11.280;2023-04-16T08:50:39;12.80;85.00
76211;DHT22;65003;49.518;11.280;2023-04-16T08:53:05;12.90;85.10
76211;DHT22;65003;49.518;11.280;2023-04-16T08:55:38;13.00;84.80
76211;DHT22;65003;49.518;11.280;2023-04-16T08:58:14;13.30;84.20
76211;DHT22;65003;49.518;11.280;2023-04-16T09:00:40;13.60;81.60
76211;DHT22;65003;49.518;11.280;2023-04-16T09:03:07;13.90;80.10
76211;DHT22;65003;49.518;11.280;2023-04-16T09:05:33;14.00;80.60
76211;DHT22;65003;49.518;11.280;2023-04-16T09:08:00;13.80;77.70
76211;DHT22;65003;49.518;11.280;2023-04-16T09:10:26;13.70;78.20
76211;DHT22;65003;49.518;11.280;2023-04-16T09:12:55;13.80;78.60
76211;DHT22;65003;49.518;11.280;2023-04-16T09:15:22;13.70;78.30
76211;DHT22;65003;49.518;11.280;2023-04-16T09:17:48;13.60;78.00
76211;DHT22;65003;49.518;11.280;2023-04-16T09:20:15;13.40;78.90
76211;DHT22;65003;49.518;11.280;2023-04-16T09:22:42;13.20;80.30
76211;DHT22;65003;49.518;11.280;2023-04-16T09:25:09;13.00;81.60
76211;DHT22;65003;49.518;11.280;2023-04-16T09:27:37;12.80;80.70
76211;DHT22;65003;49.518;11.280;2023-04-16T09:32:42;12.70;81.90
76211;DHT22;65003;49.518;11.280;2023-04-16T09:35:08;12.50;83.20
76211;DHT22;65003;49.518;11.280;2023-04-16T09:37:35;12.30;84.40
76211;DHT22;65003;49.518;11.280;2023-04-16T09:40:02;12.30;84.70
76211;DHT22;65003;49.518;11.280;2023-04-16T09:42:31;12.30;84.70
76211;DHT22;65003;49.518;11.280;2023-04-16T09:44:57;12.20;84.90
76211;DHT22;65003;49.518;11.280;2023-04-16T09:47:25;12.30;85.30
76211;DHT22;65003;49.518;11.280;2023-04-16T09:49:51;12.40;84.90
76211;DHT22;65003;49.518;11.280;2023-04-16T09:52:19;12.70;84.30
76211;DHT22;65003;49.518;11.280;2023-04-16T09:54:47;12.90;82.70
76211;DHT22;65003;49.518;11.280;2023-04-16T09:57:13;13.00;82.00
76211;DHT22;65003;49.518;11.280;2023-04-16T09:59:40;12.70;81.70
76211;DHT22;65003;49.518;11.280;2023-04-16T10:02:06;12.50;82.70
76211;DHT22;65003;49.518;11.280;2023-04-16T10:04:47;12.50;83.90
76211;DHT22;65003;49.518;11.280;2023-04-16T10:07:14;12.50;83.40
76211;DHT22;65003;49.518;11.280;2023-04-16T10:09:41;12.50;82.30
76211;DHT22;65003;49.518;11.280;2023-04-16T10:12:07;12.50;82.50
76211;DHT22;65003;49.518;11.280;2023-04-16T10:14:34;12.60;82.30
76211;DHT22;65003;49.518;11.280;2023-04-16T10:17:01;12.60;82.20
76211;DHT22;65003;49.518;11.280;2023-04-16T10:19:27;12.80;82.50
76211;DHT22;65003;49.518;11.280;2023-04-16T10:21:54;13.00;81.60
76211;DHT22;65003;49.518;11.280;2023-04-16T10:24:20;13.10;81.40
76211;DHT22;65003;49.518;11.280;2023-04-16T10:26:47;13.20;80.40
76211;DHT22;65003;49.518;11.280;2023-04-16T10:29:14;13.20;79.80
76211;DHT22;65003;49.518;11.280;2023-04-16T10:31:40;13.10;81.60
76211;DHT22;65003;49.518;11.280;2023-04-16T10:34:07;12.90;83.20
76211;DHT22;65003;49.518;11.280;2023-04-16T10:36:36;12.90;83.90
76211;DHT22;65003;49.518;11.280;2023-04-16T10:39:02;12.90;83.50
76211;DHT22;65003;49.518;11.280;2023-04-16T10:41:31;13.00;83.40
76211;DHT22;65003;49.518;11.280;2023-04-16T10:44:03;13.10;83.30
76211;DHT22;65003;49.518;11.280;2023-04-16T10:46:32;13.30;83.00
76211;DHT22;65003;49.518;11.280;2023-04-16T10:49:00;13.30;82.00
76211;DHT22;65003;49.518;11.280;2023-04-16T10:51:28;13.30;81.60
76211;DHT22;65003;49.518;11.280;2023-04-16T10:53:55;13.10;81.60
76211;DHT22;65003;49.518;11.280;2023-04-16T10:56:24;12.70;76.00
76211;DHT22;65003;49.518;11.280;2023-04-16T10:58:51;12.50;76.50
76211;DHT22;65003;49.518;11.280;2023-04-16T11:01:17;12.20;76.00
76211;DHT22;65003;49.518;11.280;2023-04-16T11:03:45;12.20;76.70
76211;DHT22;65003;49.518;11.280;2023-04-16T11:06:22;12.30;77.30
76211;DHT22;65003;49.518;11.280;2023-04-16T11:08:43;12.40;77.90
76211;DHT22;65003;49.518;11.280;2023-04-16T11:11:10;12.60;76.90
76211;DHT22;65003;49.518;11.280;2023-04-16T11:13:36;12.60;75.60
76211;DHT22;65003;49.518;11.280;2023-04-16T11:16:04;12.50;77.00
76211;DHT22;65003;49.518;11.280;2023-04-16T11:18:30;12.50;79.00
76211;DHT22;65003;49.518;11.280;2023-04-16T11:20:57;12.70;77.90
76211;DHT22;65003;49.518;11.280;2023-04-16T11:23:24;12.80;77.30
76211;DHT22;65003;49.518;11.280;2023-04-16T11:25:50;12.90;77.10
76211;DHT22;65003;49.518;11.280;2023-04-16T11:28:17;13.00;76.70
76211;DHT22;65003;49.518;11.280;2023-04-16T11:30:43;12.90;76.10
76211;DHT22;65003;49.518;11.280;2023-04-16T11:33:10;13.00;75.70
76211;DHT22;65003;49.518;11.280;2023-04-16T11:35:38;13.00;75.70
76211;DHT22;65003;49.518;11.280;2023-04-16T11:38:05;13.20;76.60
76211;DHT22;65003;49.518;11.280;2023-04-16T11:40:31;13.30;76.50
76211;DHT22;65003;49.518;11.280;2023-04-16T11:43:05;13.40;77.00
76211;DHT22;65003;49.518;11.280;2023-04-16T11:45:29;13.30;77.80
76211;DHT22;65003;49.518;11.280;2023-04-16T11:47:56;13.20;78.50
76211;DHT22;65003;49.518;11.280;2023-04-16T11:50:24;13.00;79.30
76211;DHT22;65003;49.518;11.280;2023-04-16T11:52:51;12.90;79.80
76211;DHT22;65003;49.518;11.280;2023-04-16T11:55:17;13.00;80.50
76211;DHT22;65003;49.518;11.280;2023-04-16T11:57:43;12.90;80.60
76211;DHT22;65003;49.518;11.280;2023-04-16T12:00:11;13.00;81.00
76211;DHT22;65003;49.518;11.280;2023-04-16T12:02:40;12.90;81.00
76211;DHT22;65003;49.518;11.280;2023-04-16T12:07:48;13.00;81.00
76211;DHT22;65003;49.518;11.280;2023-04-16T12:10:15;13.00;80.50
76211;DHT22;65003;49.518;11.280;2023-04-16T12:12:42;12.90;81.80
76211;DHT22;65003;49.518;11.280;2023-04-16T12:15:09;12.90;81.50
76211;DHT22;65003;49.518;11.280;2023-04-16T12:17:36;12.70;81.80
76211;DHT22;65003;49.518;11.280;2023-04-16T12:20:03;12.40;83.90
76211;DHT22;65003;49.518;11.280;2023-04-16T12:22:32;12.30;84.40
76211;DHT22;65003;49.518;11.280;2023-04-16T12:24:58;12.30;85.70
76211;DHT22;65003;49.518;11.280;2023-04-16T12:27:24;12.40;86.00
76211;DHT22;65003;49.518;11.280;2023-04-16T12:30:02;12.40;86.60
76211;DHT22;65003;49.518;11.280;2023-04-16T12:32:28;12.40;86.10
76211;DHT22;65003;49.518;11.280;2023-04-16T12:34:54;12.40;86.60
76211;DHT22;65003;49.518;11.280;2023-04-16T12:37:21;12.40;86.30
76211;DHT22;65003;49.518;11.280;2023-04-16T12:39:47;12.50;86.50
76211;DHT22;65003;49.518;11.280;2023-04-16T12:42:14;12.40;86.10
76211;DHT22;65003;49.518;11.280;2023-04-16T12:44:41;12.60;85.80
76211;DHT22;65003;49.518;11.280;2023-04-16T12:47:07;12.70;85.40
76211;DHT22;65003;49.518;11.280;2023-04-16T12:49:34;12.70;86.20
76211;DHT22;65003;49.518;11.280;2023-04-16T12:52:01;12.70;86.10
76211;DHT22;65003;49.518;11.280;2023-04-16T12:54:27;12.60;87.20
76211;DHT22;65003;49.518;11.280;2023-04-16T12:56:54;12.70;86.10
76211;DHT22;65003;49.518;11.280;2023-04-16T12:59:20;12.90;85.50
76211;DHT22;65003;49.518;11.280;2023-04-16T13:01:47;12.90;85.00
76211;DHT22;65003;49.518;11.280;2023-04-16T13:04:14;12.90;85.10
76211;DHT22;65003;49.518;11.280;2023-04-16T13:06:40;13.00;85.10
76211;DHT22;65003;49.518;11.280;2023-04-16T13:09:07;13.10;84.20
76211;DHT22;65003;49.518;11.280;2023-04-16T13:11:33;13.20;83.30
76211;DHT22;65003;49.518;11.280;2023-04-16T13:14:00;13.20;83.50
76211;DHT22;65003;49.518;11.280;2023-04-16T13:16:27;13.30;83.30
76211;DHT22;65003;49.518;11.280;2023-04-16T13:18:53;13.40;82.80
76211;DHT22;65003;49.518;11.280;2023-04-16T13:21:20;13.60;82.50
76211;DHT22;65003;49.518;11.280;2023-04-16T13:23:46;13.70;82.40
76211;DHT22;65003;49.518;11.280;2023-04-16T13:26:13;13.70;82.30
76211;DHT22;65003;49.518;11.280;2023-04-16T13:28:40;13.70;81.00
76211;DHT22;65003;49.518;11.280;2023-04-16T13:31:06;13.80;80.50
76211;DHT22;65003;49.518;11.280;2023-04-16T13:33:33;13.80;80.20
76211;DHT22;65003;49.518;11.280;2023-04-16T13:35:59;14.00;80.20
76211;DHT22;65003;49.518;11.280;2023-04-16T13:38:26;14.10;79.10
76211;DHT22;65003;49.518;11.280;2023-04-16T13:40:52;14.30;78.80
76211;DHT22;65003;49.518;11.280;2023-04-16T13:43:19;14.40;77.90
76211;DHT22;65003;49.518;11.280;2023-04-16T13:45:46;14.60;76.30
76211;DHT22;65003;49.518;11.280;2023-04-16T13:48:12;14.80;74.90
76211;DHT22;65003;49.518;11.280;2023-04-16T13:50:39;14.90;73.00
76211;DHT22;65003;49.518;11.280;2023-04-16T13:53:06;14.90;73.30
76211;DHT22;65003;49.518;11.280;2023-04-16T13:55:32;15.00;73.60
76211;DHT22;65003;49.518;11.280;2023-04-16T13:57:59;15.10;71.10
76211;DHT22;65003;49.518;11.280;2023-04-16T14:00:26;14.90;70.80
76211;DHT22;65003;49.518;11.280;2023-04-16T14:02:52;14.90;70.10
76211;DHT22;65003;49.518;11.280;2023-04-16T14:05:19;14.80;70.80
76211;DHT22;65003;49.518;11.280;2023-04-16T14:07:45;14.80;70.90
76211;DHT22;65003;49.518;11.280;2023-04-16T14:10:12;15.00;71.40
76211;DHT22;65003;49.518;11.280;2023-04-16T14:12:39;15.20;70.10
76211;DHT22;65003;49.518;11.280;2023-04-16T14:15:06;15.30;71.20
76211;DHT22;65003;49.518;11.280;2023-04-16T14:17:33;15.30;71.00
76211;DHT22;65003;49.518;11.280;2023-04-16T14:19:59;15.30;71.10
76211;DHT22;65003;49.518;11.280;2023-04-16T14:22:26;15.50;71.30
76211;DHT22;65003;49.518;11.280;2023-04-16T14:24:52;15.60;69.60
76211;DHT22;65003;49.518;11.280;2023-04-16T14:27:19;15.60;69.90
76211;DHT22;65003;49.518;11.280;2023-04-16T14:29:45;15.50;68.60
76211;DHT22;65003;49.518;11.280;2023-04-16T14:32:12;15.30;68.80
76211;DHT22;65003;49.518;11.280;2023-04-16T14:34:39;15.20;69.70
76211;DHT22;65003;49.518;11.280;2023-04-16T14:37:05;15.30;71.40
76211;DHT22;65003;49.518;11.280;2023-04-16T14:39:32;15.20;70.40
76211;DHT22;65003;49.518;11.280;2023-04-16T14:41:58;15.20;71.40
76211;DHT22;65003;49.518;11.280;2023-04-16T14:44:25;15.10;72.10
76211;DHT22;65003;49.518;11.280;2023-04-16T14:46:52;15.20;71.10
76211;DHT22;65003;49.518;11.280;2023-04-16T14:49:18;15.20;71.70
76211;DHT22;65003;49.518;11.280;2023-04-16T14:51:45;15.20;70.50
76211;DHT22;65003;49.518;11.280;2023-04-16T14:54:11;15.10;70.20
76211;DHT22;65003;49.518;11.280;2023-04-16T14:56:38;14.90;71.40
76211;DHT22;65003;49.518;11.280;2023-04-16T14:59:06;14.70;72.30
76211;DHT22;65003;49.518;11.280;2023-04-16T15:01:32;14.60;72.70
76211;DHT22;65003;49.518;11.280;2023-04-16T15:03:59;14.60;74.10
76211;DHT22;65003;49.518;11.280;2023-04-16T15:06:25;14.70;74.80
76211;DHT22;65003;49.518;11.280;2023-04-16T15:08:52;14.70;74.20
76211;DHT22;65003;49.518;11.280;2023-04-16T15:11:19;14.70;74.70
76211;DHT22;65003;49.518;11.280;2023-04-16T15:13:45;14.80;74.80
76211;DHT22;65003;49.518;11.280;2023-04-16T15:16:12;14.90;73.40
76211;DHT22;65003;49.518;11.280;2023-04-16T15:18:38;15.00;73.60